createdAt,value
2023-05-06T00:00:58.250Z,100.00
2023-05-06T00:03:25.912Z,100.00
2023-05-06T00:05:53.652Z,100.00
2023-05-06T00:08:21.362Z,100.00
2023-05-06T00:10:48.800Z,100.00
2023-05-06T00:13:16.626Z,100.00
2023-05-06T00:15:44.352Z,100.00
2023-05-06T00:18:11.946Z,100.00
2023-05-06T00:20:39.416Z,100.00
2023-05-06T00:23:06.857Z,100.00
2023-05-06T00:25:34.275Z,100.00
2023-05-06T00:28:01.802Z,100.00
2023-05-06T00:30:29.597Z,100.00
2023-05-06T00:32:57.288Z,100.00
2023-05-06T00:35:24.904Z,100.00
2023-05-06T00:38:08.532Z,100.00
2023-05-06T00:40:36.604Z,100.00
2023-05-06T00:43:04.519Z,100.00
2023-05-06T00:45:32.192Z,100.00
2023-05-06T00:48:00.302Z,100.00
2023-05-06T00:50:29.840Z,100.00
2023-05-06T00:52:58.647Z,100.00
2023-05-06T00:55:26.467Z,100.00
2023-05-06T00:57:54.745Z,100.00
2023-05-06T01:00:22.554Z,100.00
2023-05-06T01:02:50.176Z,100.00
2023-05-06T01:05:21.216Z,100.00
2023-05-06T01:08:13.385Z,100.00
2023-05-06T01:10:56.960Z,100.00
2023-05-06T01:13:34.651Z,100.00
2023-05-06T01:16:04.263Z,100.00
2023-05-06T01:18:32.910Z,100.00
2023-05-06T01:21:02.041Z,100.00
2023-05-06T01:23:29.514Z,100.00
2023-05-06T01:25:57.151Z,100.00
2023-05-06T01:28:24.530Z,100.00
2023-05-06T01:31:05.676Z,100.00
2023-05-06T01:33:48.574Z,100.00
2023-05-06T01:36:46.907Z,100.00
2023-05-06T01:39:20.546Z,100.00
2023-05-06T01:41:50.375Z,100.00
2023-05-06T01:44:21.653Z,100.00
2023-05-06T01:46:50.258Z,100.00
2023-05-06T01:49:20.369Z,100.00
2023-05-06T01:51:52.651Z,100.00
2023-05-06T01:54:20.301Z,100.00
2023-05-06T01:56:47.829Z,100.00
2023-05-06T01:59:15.879Z,100.00
2023-05-06T02:01:43.426Z,100.00
2023-05-06T02:04:11.163Z,100.00
2023-05-06T02:06:38.862Z,100.00
2023-05-06T02:09:06.639Z,100.00
2023-05-06T02:11:39.344Z,100.00
2023-05-06T02:14:08.404Z,100.00
2023-05-06T02:16:36.928Z,100.00
2023-05-06T02:19:06.089Z,100.00
2023-05-06T02:21:33.534Z,100.00
2023-05-06T02:24:01.057Z,100.00
2023-05-06T02:26:28.493Z,100.00
2023-05-06T02:28:56.070Z,100.00
2023-05-06T02:31:23.723Z,100.00
2023-05-06T02:33:51.339Z,100.00
2023-05-06T02:36:18.758Z,100.00
2023-05-06T02:38:47.609Z,100.00
2023-05-06T02:41:15.223Z,100.00
2023-05-06T02:43:42.692Z,100.00
2023-05-06T02:46:10.196Z,100.00
2023-05-06T02:48:37.732Z,100.00
2023-05-06T02:51:06.299Z,100.00
2023-05-06T02:53:33.986Z,100.00
2023-05-06T02:56:01.420Z,100.00
2023-05-06T02:58:29.341Z,100.00
2023-05-06T03:00:56.867Z,100.00
2023-05-06T03:03:24.434Z,100.00
2023-05-06T03:05:51.804Z,100.00
2023-05-06T03:08:19.538Z,100.00
2023-05-06T03:10:47.197Z,100.00
2023-05-06T03:13:17.649Z,100.00
2023-05-06T03:15:45.266Z,100.00
2023-05-06T03:18:12.719Z,100.00
2023-05-06T03:20:40.761Z,100.00
2023-05-06T03:23:08.319Z,100.00
2023-05-06T03:25:35.946Z,100.00
2023-05-06T03:28:03.582Z,100.00
2023-05-06T03:30:32.440Z,100.00
2023-05-06T03:33:02.783Z,100.00
2023-05-06T03:35:33.550Z,100.00
2023-05-06T03:38:01.919Z,100.00
2023-05-06T03:40:37.935Z,100.00
2023-05-06T03:43:05.917Z,100.00
2023-05-06T03:45:33.774Z,100.00
2023-05-06T03:48:03.921Z,100.00
2023-05-06T03:50:33.333Z,100.00
2023-05-06T03:53:00.950Z,100.00
2023-05-06T03:55:31.137Z,100.00
2023-05-06T03:57:58.892Z,100.00
2023-05-06T04:00:26.577Z,100.00
2023-05-06T04:02:55.075Z,100.00
2023-05-06T04:05:29.396Z,100.00
2023-05-06T04:07:58.034Z,100.00
2023-05-06T04:10:25.606Z,100.00
2023-05-06T04:12:56.287Z,100.00
2023-05-06T04:15:32.080Z,100.00
2023-05-06T04:18:01.691Z,100.00
2023-05-06T04:20:29.869Z,100.00
2023-05-06T04:22:57.589Z,100.00
2023-05-06T04:25:26.014Z,100.00
2023-05-06T04:27:53.562Z,100.00
2023-05-06T04:30:21.592Z,100.00
2023-05-06T04:32:50.620Z,100.00
2023-05-06T04:35:18.160Z,100.00
2023-05-06T04:37:45.929Z,100.00
2023-05-06T04:40:19.692Z,100.00
2023-05-06T04:42:49.691Z,100.00
2023-05-06T04:45:22.424Z,100.00
2023-05-06T04:47:52.460Z,100.00
2023-05-06T04:50:20.421Z,100.00
2023-05-06T04:52:48.031Z,100.00
2023-05-06T04:55:17.542Z,100.00
2023-05-06T04:57:48.970Z,100.00
2023-05-06T05:00:17.559Z,100.00
2023-05-06T05:02:45.159Z,100.00
2023-05-06T05:05:14.592Z,100.00
2023-05-06T05:07:45.117Z,100.00
2023-05-06T05:10:12.821Z,100.00
2023-05-06T05:12:40.376Z,100.00
2023-05-06T05:15:08.498Z,100.00
2023-05-06T05:17:36.259Z,100.00
2023-05-06T05:20:05.836Z,100.00
2023-05-06T05:22:33.437Z,100.00
2023-05-06T05:25:01.550Z,100.00
2023-05-06T05:27:29.323Z,100.00
2023-05-06T05:29:58.059Z,100.00
2023-05-06T05:32:25.682Z,100.00
2023-05-06T05:34:53.327Z,100.00
2023-05-06T05:37:20.972Z,100.00
2023-05-06T05:39:49.385Z,100.00
2023-05-06T05:42:18.135Z,100.00
2023-05-06T05:44:47.203Z,100.00
2023-05-06T05:47:15.780Z,100.00
2023-05-06T05:49:43.378Z,100.00
2023-05-06T05:52:10.890Z,100.00
2023-05-06T05:54:38.715Z,100.00
2023-05-06T05:57:06.853Z,100.00
2023-05-06T05:59:34.812Z,100.00
2023-05-06T06:02:05.897Z,100.00
2023-05-06T06:04:34.091Z,100.00
2023-05-06T06:07:04.693Z,100.00
2023-05-06T06:09:36.324Z,100.00
2023-05-06T06:12:05.412Z,100.00
2023-05-06T06:14:34.911Z,100.00
2023-05-06T06:17:02.686Z,100.00
2023-05-06T06:19:30.507Z,100.00
2023-05-06T06:21:58.163Z,100.00
2023-05-06T06:24:26.505Z,100.00
2023-05-06T06:26:54.454Z,100.00
2023-05-06T06:29:21.870Z,100.00
2023-05-06T06:31:49.559Z,100.00
2023-05-06T06:34:20.162Z,100.00
2023-05-06T06:36:48.000Z,100.00
2023-05-06T06:39:15.760Z,100.00
2023-05-06T06:41:43.546Z,100.00
2023-05-06T06:44:12.657Z,100.00
2023-05-06T06:46:52.137Z,100.00
2023-05-06T06:49:29.103Z,100.00
2023-05-06T06:52:00.674Z,100.00
2023-05-06T06:54:28.116Z,100.00
2023-05-06T06:56:58.597Z,100.00
2023-05-06T06:59:26.103Z,100.00
2023-05-06T07:01:53.496Z,100.00
2023-05-06T07:04:21.269Z,100.00
2023-05-06T07:06:48.884Z,100.00
2023-05-06T07:09:16.507Z,100.00
2023-05-06T07:11:43.897Z,100.00
2023-05-06T07:14:12.060Z,100.00
2023-05-06T07:16:39.474Z,100.00
2023-05-06T07:19:07.397Z,100.00
2023-05-06T07:21:35.041Z,100.00
2023-05-06T07:24:02.596Z,100.00
2023-05-06T07:26:30.008Z,100.00
2023-05-06T07:28:57.586Z,100.00
2023-05-06T07:31:25.223Z,100.00
2023-05-06T07:33:52.793Z,100.00
2023-05-06T07:36:20.340Z,100.00
2023-05-06T07:38:47.890Z,100.00
2023-05-06T07:41:15.407Z,100.00
2023-05-06T07:43:42.868Z,100.00
2023-05-06T07:46:11.001Z,100.00
2023-05-06T07:48:38.762Z,100.00
2023-05-06T07:51:06.231Z,100.00
2023-05-06T07:53:33.868Z,100.00
2023-05-06T07:56:02.633Z,100.00
2023-05-06T07:58:31.603Z,100.00
2023-05-06T08:01:00.037Z,100.00
2023-05-06T08:03:27.877Z,100.00
2023-05-06T08:05:55.957Z,100.00
2023-05-06T08:08:24.017Z,100.00
2023-05-06T08:10:51.498Z,100.00
2023-05-06T08:13:19.084Z,100.00
2023-05-06T08:15:46.790Z,100.00
2023-05-06T08:18:22.191Z,100.00
2023-05-06T08:20:51.005Z,100.00
2023-05-06T08:23:18.641Z,100.00
2023-05-06T08:25:46.703Z,100.00
2023-05-06T08:28:14.156Z,100.00
2023-05-06T08:30:41.578Z,100.00
2023-05-06T08:33:09.124Z,100.00
2023-05-06T08:35:36.891Z,100.00
2023-05-06T08:38:04.369Z,100.00
2023-05-06T08:40:33.862Z,100.00
2023-05-06T08:43:04.207Z,100.00
2023-05-06T08:45:33.087Z,100.00
2023-05-06T08:48:00.697Z,100.00
2023-05-06T08:50:28.617Z,100.00
2023-05-06T08:52:56.112Z,100.00
2023-05-06T08:55:26.630Z,100.00
2023-05-06T08:57:54.935Z,100.00
2023-05-06T09:00:22.465Z,100.00
2023-05-06T09:02:50.132Z,100.00
2023-05-06T09:05:17.798Z,100.00
2023-05-06T09:07:52.390Z,100.00
2023-05-06T09:10:22.728Z,100.00
2023-05-06T09:12:53.645Z,100.00
2023-05-06T09:15:25.997Z,100.00
2023-05-06T09:17:55.506Z,100.00
2023-05-06T09:20:23.218Z,100.00
2023-05-06T09:22:54.087Z,100.00
2023-05-06T09:25:21.580Z,100.00
2023-05-06T09:27:48.965Z,100.00
2023-05-06T09:30:16.635Z,100.00
2023-05-06T09:32:44.321Z,100.00
2023-05-06T09:35:12.029Z,100.00
2023-05-06T09:37:39.648Z,100.00
2023-05-06T09:40:09.366Z,100.00
2023-05-06T09:42:37.011Z,100.00
2023-05-06T09:45:08.923Z,100.00
2023-05-06T09:47:36.733Z,100.00
2023-05-06T09:50:04.911Z,100.00
2023-05-06T09:52:32.405Z,100.00
2023-05-06T09:55:01.610Z,100.00
2023-05-06T09:57:31.172Z,100.00
2023-05-06T10:00:00.634Z,100.00
2023-05-06T10:02:29.172Z,100.00
2023-05-06T10:04:57.511Z,100.00
2023-05-06T10:07:28.907Z,100.00
2023-05-06T10:09:59.066Z,100.00
2023-05-06T10:12:26.746Z,100.00
2023-05-06T10:14:54.637Z,100.00
2023-05-06T10:17:26.024Z,100.00
2023-05-06T10:19:58.959Z,100.00
2023-05-06T10:22:49.349Z,100.00
2023-05-06T10:25:22.349Z,100.00
2023-05-06T10:27:50.354Z,100.00
2023-05-06T10:30:19.721Z,100.00
2023-05-06T10:32:47.397Z,100.00
2023-05-06T10:35:32.766Z,100.00
2023-05-06T10:38:03.242Z,98.89
2023-05-06T10:40:31.883Z,96.01
2023-05-06T10:43:34.748Z,95.21
2023-05-06T10:46:12.105Z,93.55
2023-05-06T10:49:01.240Z,91.16
2023-05-06T10:51:29.148Z,90.21
2023-05-06T10:54:02.828Z,92.08
2023-05-06T10:56:33.467Z,91.50
2023-05-06T10:59:12.429Z,90.38
2023-05-06T11:01:41.961Z,90.43
2023-05-06T11:04:11.518Z,92.05
2023-05-06T11:06:46.642Z,92.59
2023-05-06T11:09:20.638Z,94.33
2023-05-06T11:11:51.099Z,94.30
2023-05-06T11:14:29.798Z,92.95
2023-05-06T11:17:01.615Z,93.59
2023-05-06T11:19:33.986Z,91.32
2023-05-06T11:22:04.043Z,89.73
2023-05-06T11:24:39.064Z,88.56
2023-05-06T11:27:07.217Z,87.56
2023-05-06T11:29:34.616Z,86.51
2023-05-06T11:32:03.804Z,84.48
2023-05-06T11:34:32.732Z,85.28
2023-05-06T11:37:05.781Z,85.77
2023-05-06T11:39:39.665Z,85.63
2023-05-06T11:42:09.331Z,84.87
2023-05-06T11:44:38.810Z,84.51
2023-05-06T11:47:08.944Z,83.30
2023-05-06T11:49:36.941Z,80.29
2023-05-06T11:52:04.699Z,78.75
2023-05-06T11:54:36.237Z,78.92
2023-05-06T11:57:03.877Z,81.39
2023-05-06T11:59:32.616Z,79.07
2023-05-06T12:02:02.477Z,79.01
2023-05-06T12:04:46.530Z,79.84
2023-05-06T12:07:15.526Z,79.33
2023-05-06T12:09:50.653Z,78.71
2023-05-06T12:12:22.666Z,78.53
2023-05-06T12:14:52.696Z,77.76
2023-05-06T12:17:20.421Z,78.35
2023-05-06T12:19:48.261Z,77.73
2023-05-06T12:22:20.743Z,76.54
2023-05-06T12:24:49.411Z,74.83
2023-05-06T12:27:33.813Z,75.82
2023-05-06T12:30:02.723Z,77.00
2023-05-06T12:32:31.250Z,77.19
2023-05-06T12:35:00.628Z,77.65
2023-05-06T12:37:30.006Z,78.02
2023-05-06T12:39:59.341Z,77.78
2023-05-06T12:42:27.620Z,76.58
2023-05-06T12:44:56.479Z,76.11
2023-05-06T12:47:25.896Z,73.04
2023-05-06T12:49:59.179Z,73.54
2023-05-06T12:52:29.988Z,72.40
2023-05-06T12:55:00.850Z,74.20
2023-05-06T12:57:28.238Z,73.87
2023-05-06T12:59:56.533Z,73.82
2023-05-06T13:02:24.092Z,74.11
2023-05-06T13:04:51.741Z,74.92
2023-05-06T13:07:19.227Z,76.18
2023-05-06T13:09:46.818Z,75.86
2023-05-06T13:12:14.295Z,76.44
2023-05-06T13:14:41.744Z,77.18
2023-05-06T13:17:09.361Z,78.59
2023-05-06T13:19:37.360Z,79.36
2023-05-06T13:22:04.948Z,78.55
2023-05-06T13:24:32.603Z,77.34
2023-05-06T13:27:01.465Z,75.15
2023-05-06T13:29:29.811Z,75.19
2023-05-06T13:31:57.782Z,75.83
2023-05-06T13:34:26.127Z,76.44
2023-05-06T13:36:54.878Z,76.10
2023-05-06T13:39:23.160Z,77.10
2023-05-06T13:41:51.299Z,78.06
2023-05-06T13:44:22.108Z,78.05
2023-05-06T13:46:49.723Z,77.63
2023-05-06T13:49:18.684Z,77.47
2023-05-06T13:51:46.242Z,77.53
2023-05-06T13:54:13.674Z,77.94
2023-05-06T13:56:41.305Z,78.64
2023-05-06T13:59:10.103Z,78.31
2023-05-06T14:01:38.773Z,78.55
2023-05-06T14:04:06.362Z,78.79
2023-05-06T14:06:34.107Z,79.59
2023-05-06T14:09:01.757Z,80.44
2023-05-06T14:11:29.331Z,81.67
2023-05-06T14:13:57.430Z,83.53
2023-05-06T14:16:25.028Z,83.08
2023-05-06T14:18:52.830Z,82.89
2023-05-06T14:21:20.403Z,84.10
2023-05-06T14:23:47.781Z,86.38
2023-05-06T14:26:15.361Z,88.14
2023-05-06T14:28:42.739Z,94.40
2023-05-06T14:31:10.341Z,100.00
2023-05-06T14:33:38.750Z,100.00
2023-05-06T14:36:06.710Z,100.00
2023-05-06T14:38:34.234Z,100.00
2023-05-06T14:41:01.741Z,100.00
2023-05-06T14:43:29.160Z,100.00
2023-05-06T14:45:56.875Z,100.00
2023-05-06T14:48:25.524Z,100.00
2023-05-06T14:50:53.228Z,100.00
2023-05-06T14:53:20.698Z,100.00
2023-05-06T14:55:49.009Z,100.00
2023-05-06T14:58:16.475Z,100.00
2023-05-06T15:00:44.988Z,100.00
2023-05-06T15:03:12.548Z,100.00
2023-05-06T15:05:40.242Z,100.00
2023-05-06T15:08:07.811Z,100.00
2023-05-06T15:10:35.293Z,100.00
2023-05-06T15:13:03.059Z,100.00
2023-05-06T15:15:30.831Z,100.00
2023-05-06T15:17:58.366Z,100.00
2023-05-06T15:20:26.219Z,100.00
2023-05-06T15:22:53.650Z,100.00
2023-05-06T15:25:34.243Z,100.00
2023-05-06T15:28:05.106Z,100.00
2023-05-06T15:30:32.747Z,100.00
2023-05-06T15:33:01.856Z,100.00
2023-05-06T15:35:31.134Z,100.00
2023-05-06T15:37:59.228Z,100.00
2023-05-06T15:40:27.213Z,100.00
2023-05-06T15:42:55.321Z,100.00
2023-05-06T15:45:22.859Z,100.00
2023-05-06T15:47:50.403Z,100.00
2023-05-06T15:50:32.529Z,100.00
2023-05-06T15:53:02.241Z,100.00
2023-05-06T15:55:34.595Z,100.00
2023-05-06T15:58:08.894Z,100.00
2023-05-06T16:00:36.432Z,100.00
2023-05-06T16:03:04.149Z,100.00
2023-05-06T16:05:32.043Z,100.00
2023-05-06T16:07:59.825Z,100.00
2023-05-06T16:10:27.303Z,100.00
2023-05-06T16:12:54.880Z,100.00
2023-05-06T16:15:22.341Z,100.00
2023-05-06T16:17:49.896Z,100.00
2023-05-06T16:20:17.520Z,100.00
2023-05-06T16:22:50.440Z,100.00
2023-05-06T16:25:17.901Z,100.00
2023-05-06T16:27:45.404Z,100.00
2023-05-06T16:30:13.304Z,100.00
2023-05-06T16:32:40.759Z,100.00
2023-05-06T16:35:09.553Z,100.00
2023-05-06T16:37:37.115Z,100.00
2023-05-06T16:40:05.056Z,100.00
2023-05-06T16:42:32.519Z,100.00
2023-05-06T16:45:00.134Z,100.00
2023-05-06T16:47:27.825Z,100.00
2023-05-06T16:49:55.748Z,100.00
2023-05-06T16:52:23.338Z,100.00
2023-05-06T16:54:51.460Z,100.00
2023-05-06T16:57:19.274Z,100.00
2023-05-06T16:59:46.754Z,100.00
2023-05-06T17:02:14.301Z,100.00
2023-05-06T17:04:41.829Z,100.00
2023-05-06T17:07:11.291Z,100.00
2023-05-06T17:09:39.304Z,100.00
2023-05-06T17:12:07.954Z,100.00
2023-05-06T17:14:35.810Z,100.00
2023-05-06T17:17:05.442Z,100.00
2023-05-06T17:19:33.793Z,100.00
2023-05-06T17:22:01.238Z,100.00
2023-05-06T17:24:28.788Z,100.00
2023-05-06T17:26:56.311Z,100.00
2023-05-06T17:29:23.956Z,100.00
2023-05-06T17:31:51.562Z,100.00
2023-05-06T17:34:19.186Z,100.00
2023-05-06T17:36:46.652Z,100.00
2023-05-06T17:39:14.371Z,100.00
2023-05-06T17:41:41.802Z,100.00
2023-05-06T17:44:09.324Z,100.00
2023-05-06T17:46:37.119Z,100.00
2023-05-06T17:49:04.646Z,100.00
2023-05-06T17:51:32.133Z,100.00
2023-05-06T17:53:59.744Z,100.00
2023-05-06T17:56:27.327Z,100.00
2023-05-06T17:58:55.084Z,100.00
2023-05-06T18:01:22.647Z,100.00
2023-05-06T18:03:50.290Z,100.00
2023-05-06T18:06:18.786Z,100.00
2023-05-06T18:08:46.361Z,100.00
2023-05-06T18:11:13.792Z,100.00
2023-05-06T18:13:41.353Z,100.00
2023-05-06T18:16:08.968Z,100.00
2023-05-06T18:18:36.831Z,100.00
2023-05-06T18:21:04.266Z,100.00
2023-05-06T18:23:32.009Z,100.00
2023-05-06T18:25:59.549Z,100.00
2023-05-06T18:28:27.130Z,100.00
2023-05-06T18:30:54.593Z,100.00
2023-05-06T18:33:22.301Z,100.00
2023-05-06T18:35:49.786Z,100.00
2023-05-06T18:38:17.251Z,100.00
2023-05-06T18:40:47.434Z,100.00
2023-05-06T18:43:14.865Z,100.00
2023-05-06T18:45:43.013Z,100.00
2023-05-06T18:48:10.986Z,100.00
2023-05-06T18:50:38.590Z,100.00
2023-05-06T18:53:06.110Z,100.00
2023-05-06T18:55:33.707Z,100.00
2023-05-06T18:58:05.710Z,100.00
2023-05-06T19:00:33.514Z,100.00
2023-05-06T19:03:01.198Z,100.00
2023-05-06T19:05:28.765Z,100.00
2023-05-06T19:07:56.238Z,100.00
2023-05-06T19:10:23.889Z,100.00
2023-05-06T19:12:51.629Z,100.00
2023-05-06T19:15:19.261Z,100.00
2023-05-06T19:17:46.618Z,100.00
2023-05-06T19:20:14.495Z,100.00
2023-05-06T19:22:42.162Z,100.00
2023-05-06T19:25:10.629Z,100.00
2023-05-06T19:27:38.599Z,100.00
2023-05-06T19:30:07.414Z,100.00
2023-05-06T19:32:34.886Z,100.00
2023-05-06T19:35:08.164Z,100.00
2023-05-06T19:37:42.348Z,100.00
2023-05-06T19:40:10.873Z,100.00
2023-05-06T19:42:38.312Z,100.00
2023-05-06T19:45:09.467Z,100.00
2023-05-06T19:47:37.492Z,100.00
2023-05-06T19:50:06.266Z,100.00
2023-05-06T19:52:34.781Z,100.00
2023-05-06T19:55:03.343Z,100.00
2023-05-06T19:57:31.052Z,100.00
2023-05-06T19:59:58.475Z,100.00
2023-05-06T20:02:26.449Z,100.00
2023-05-06T20:04:54.028Z,100.00
2023-05-06T20:07:23.000Z,100.00
2023-05-06T20:09:55.274Z,100.00
2023-05-06T20:12:23.704Z,100.00
2023-05-06T20:14:51.456Z,100.00
2023-05-06T20:17:19.085Z,100.00
2023-05-06T20:19:46.885Z,100.00
2023-05-06T20:22:14.813Z,100.00
2023-05-06T20:24:43.127Z,100.00
2023-05-06T20:27:10.929Z,100.00
2023-05-06T20:29:38.295Z,100.00
2023-05-06T20:32:05.864Z,100.00
2023-05-06T20:34:33.419Z,100.00
2023-05-06T20:37:01.670Z,100.00
2023-05-06T20:39:29.146Z,100.00
2023-05-06T20:41:56.766Z,100.00
2023-05-06T20:44:25.123Z,100.00
2023-05-06T20:46:52.885Z,100.00
2023-05-06T20:49:20.416Z,100.00
2023-05-06T20:51:48.024Z,100.00
2023-05-06T20:54:15.559Z,100.00
2023-05-06T20:56:43.087Z,100.00
2023-05-06T20:59:10.961Z,100.00
2023-05-06T21:01:38.663Z,100.00
2023-05-06T21:04:06.479Z,100.00
2023-05-06T21:06:34.094Z,100.00
2023-05-06T21:09:01.493Z,100.00
2023-05-06T21:11:29.113Z,100.00
2023-05-06T21:13:57.905Z,100.00
2023-05-06T21:16:25.770Z,100.00
2023-05-06T21:18:53.420Z,100.00
2023-05-06T21:21:24.542Z,100.00
2023-05-06T21:23:52.092Z,100.00
2023-05-06T21:26:19.578Z,100.00
2023-05-06T21:28:51.378Z,100.00
2023-05-06T21:31:26.605Z,100.00
2023-05-06T21:33:55.903Z,100.00
2023-05-06T21:36:23.640Z,100.00
2023-05-06T21:39:17.677Z,100.00
2023-05-06T21:41:45.580Z,100.00
2023-05-06T21:44:13.220Z,100.00
2023-05-06T21:46:41.200Z,100.00
2023-05-06T21:49:08.607Z,100.00
2023-05-06T21:51:36.976Z,100.00
2023-05-06T21:54:04.637Z,100.00
2023-05-06T21:56:32.148Z,100.00
2023-05-06T21:58:59.705Z,100.00
2023-05-06T22:01:27.417Z,100.00
2023-05-06T22:03:55.317Z,100.00
2023-05-06T22:06:23.130Z,100.00
2023-05-06T22:08:50.600Z,100.00
2023-05-06T22:11:18.313Z,100.00
2023-05-06T22:13:45.779Z,100.00
2023-05-06T22:16:13.391Z,100.00
2023-05-06T22:18:41.669Z,100.00
2023-05-06T22:21:09.953Z,100.00
2023-05-06T22:23:40.598Z,100.00
2023-05-06T22:26:08.213Z,100.00
2023-05-06T22:28:36.098Z,100.00
2023-05-06T22:31:03.748Z,100.00
2023-05-06T22:33:31.327Z,100.00
2023-05-06T22:35:58.933Z,100.00
2023-05-06T22:38:26.399Z,100.00
2023-05-06T22:40:53.957Z,100.00
2023-05-06T22:43:21.506Z,100.00
2023-05-06T22:45:49.113Z,100.00
2023-05-06T22:48:16.733Z,100.00
2023-05-06T22:50:44.284Z,100.00
2023-05-06T22:53:15.399Z,100.00
2023-05-06T22:55:43.127Z,100.00
2023-05-06T22:58:10.507Z,100.00
2023-05-06T23:00:38.114Z,100.00
2023-05-06T23:03:06.129Z,100.00
2023-05-06T23:05:33.704Z,100.00
2023-05-06T23:08:01.204Z,100.00
2023-05-06T23:10:28.680Z,100.00
2023-05-06T23:13:01.614Z,100.00
2023-05-06T23:15:29.573Z,100.00
2023-05-06T23:17:57.118Z,100.00
2023-05-06T23:20:24.838Z,100.00
2023-05-06T23:22:52.660Z,100.00
2023-05-06T23:25:20.374Z,100.00
2023-05-06T23:27:47.900Z,100.00
2023-05-06T23:30:15.717Z,100.00
2023-05-06T23:32:43.144Z,100.00
2023-05-06T23:35:11.306Z,100.00
2023-05-06T23:37:38.913Z,100.00
2023-05-06T23:40:07.336Z,100.00
2023-05-06T23:42:34.821Z,100.00
2023-05-06T23:45:02.328Z,100.00
2023-05-06T23:47:29.863Z,100.00
2023-05-06T23:49:58.901Z,100.00
2023-05-06T23:52:26.906Z,100.00
2023-05-06T23:54:54.496Z,100.00
2023-05-06T23:57:21.887Z,100.00
2023-05-06T23:59:49.475Z,100.00
